Calella, Spain
Current Conditions -  °F | °C
As of 8:00 PM on Sunday 23 Nov 2014 (Local Time) from LEGE Reporting Station
Broken Clouds Broken Clouds  
Wind Chill: 63°   Ceiling: 1000
Heat Index: 63°   Visibility: 4mi
Dew Point: 63°   Wind: 9mph
Humidity: 100%   Direction: 30°NNE
Pressure: 30.06"   Gusts: NA
Location:  41.62°N, 2.67°E
Report Text: LEGE 231900Z 03008KT 6000 FEW004 SCT005 BKN010 17/17 Q1018
Loading
Personal Weather Stations






























Interactive Weather Map New forecast layout! Learn more

10-Day Weather Forecast

Advertisements
Track Severe Weather on mobile